createdAt,value
2022-09-25T00:00:58.847Z,58.88
2022-09-25T00:03:28.423Z,59.37
2022-09-25T00:06:01.945Z,59.06
2022-09-25T00:08:29.497Z,59.18
2022-09-25T00:10:58.400Z,59.07
2022-09-25T00:13:26.068Z,59.21
2022-09-25T00:15:54.913Z,59.13
2022-09-25T00:18:43.269Z,59.19
2022-09-25T00:21:12.467Z,59.25
2022-09-25T00:23:40.016Z,59.43
2022-09-25T00:26:09.300Z,59.51
2022-09-25T00:28:37.058Z,59.58
2022-09-25T00:31:05.360Z,59.63
2022-09-25T00:33:33.374Z,59.68
2022-09-25T00:36:03.813Z,59.76
2022-09-25T00:38:31.652Z,59.73
2022-09-25T00:40:59.335Z,59.61
2022-09-25T00:43:39.315Z,59.76
2022-09-25T00:46:09.837Z,59.98
2022-09-25T00:48:37.726Z,59.85
2022-09-25T00:51:05.437Z,59.84
2022-09-25T00:53:34.261Z,60.03
2022-09-25T00:56:02.240Z,59.79
2022-09-25T00:58:29.771Z,59.85
2022-09-25T01:00:59.117Z,59.85
2022-09-25T01:03:27.391Z,60.03
2022-09-25T01:05:55.439Z,60.07
2022-09-25T01:08:24.675Z,60.18
2022-09-25T01:10:52.248Z,59.95
2022-09-25T01:13:20.212Z,59.99
2022-09-25T01:15:50.205Z,60.12
2022-09-25T01:18:25.642Z,60.21
2022-09-25T01:21:07.602Z,60.46
2022-09-25T01:23:51.042Z,60.16
2022-09-25T01:26:32.297Z,60.21
2022-09-25T01:29:07.321Z,60.22
2022-09-25T01:31:36.281Z,60.27
2022-09-25T01:34:07.169Z,60.26
2022-09-25T01:36:36.908Z,60.47
2022-09-25T01:39:07.342Z,60.36
2022-09-25T01:41:39.024Z,60.61
2022-09-25T01:44:10.005Z,60.47
2022-09-25T01:46:39.926Z,60.36
2022-09-25T01:49:09.367Z,60.54
2022-09-25T01:51:38.362Z,60.44
2022-09-25T01:54:08.495Z,60.59
2022-09-25T01:56:39.369Z,60.49
2022-09-25T01:59:09.890Z,60.55
2022-09-25T02:01:39.483Z,60.40
2022-09-25T02:04:09.120Z,60.48
2022-09-25T02:06:36.730Z,60.51
2022-09-25T02:09:06.329Z,60.67
2022-09-25T02:11:35.688Z,60.74
2022-09-25T02:14:05.402Z,60.76
2022-09-25T02:16:36.493Z,60.99
2022-09-25T02:19:21.989Z,60.66
2022-09-25T02:21:51.762Z,60.92
2022-09-25T02:24:21.839Z,60.92
2022-09-25T02:26:49.660Z,60.94
2022-09-25T02:29:17.253Z,60.88
2022-09-25T02:31:49.298Z,60.77
2022-09-25T02:34:17.134Z,60.96
2022-09-25T02:36:45.129Z,60.93
2022-09-25T02:39:13.356Z,60.86
2022-09-25T02:42:06.250Z,60.76
2022-09-25T02:44:37.709Z,61.07
2022-09-25T02:47:14.567Z,60.88
2022-09-25T02:49:47.065Z,60.60
2022-09-25T02:52:16.573Z,60.98
2022-09-25T02:54:46.457Z,60.89
2022-09-25T02:57:15.379Z,60.96
2022-09-25T02:59:44.242Z,60.91
2022-09-25T03:02:13.364Z,60.92
2022-09-25T03:04:40.956Z,60.94
2022-09-25T03:07:08.494Z,60.93
2022-09-25T03:09:36.340Z,61.16
2022-09-25T03:12:04.345Z,61.10
2022-09-25T03:14:31.936Z,60.92
2022-09-25T03:17:00.876Z,60.91
2022-09-25T03:19:29.952Z,61.06
2022-09-25T03:21:57.480Z,61.03
2022-09-25T03:24:25.607Z,61.11
2022-09-25T03:26:53.889Z,61.10
2022-09-25T03:29:21.610Z,61.11
2022-09-25T03:31:49.189Z,60.92
2022-09-25T03:34:17.679Z,60.98
2022-09-25T03:36:47.523Z,61.06
2022-09-25T03:39:17.663Z,61.12
2022-09-25T03:41:45.863Z,61.23
2022-09-25T03:44:13.508Z,61.07
2022-09-25T03:46:41.104Z,61.17
2022-09-25T03:49:10.465Z,61.21
2022-09-25T03:51:38.846Z,61.16
2022-09-25T03:54:07.786Z,61.06
2022-09-25T03:56:35.520Z,61.24
2022-09-25T03:59:03.068Z,61.15
2022-09-25T04:01:30.898Z,61.13
2022-09-25T04:04:03.208Z,61.05
2022-09-25T04:06:30.926Z,61.25
2022-09-25T04:08:58.450Z,61.35
2022-09-25T04:11:27.411Z,61.34
2022-09-25T04:13:57.256Z,61.16
2022-09-25T04:16:24.838Z,61.28
2022-09-25T04:18:52.539Z,61.38
2022-09-25T04:21:20.085Z,61.40
2022-09-25T04:24:07.628Z,61.20
2022-09-25T04:26:36.523Z,61.11
2022-09-25T04:29:04.081Z,61.19
2022-09-25T04:31:31.723Z,61.31
2022-09-25T04:33:58.326Z,61.37
2022-09-25T04:36:26.012Z,61.52
2022-09-25T04:38:53.535Z,61.32
2022-09-25T04:41:21.121Z,60.99
2022-09-25T04:43:50.053Z,61.43
2022-09-25T04:46:22.405Z,61.42
2022-09-25T04:48:50.178Z,61.22
2022-09-25T04:51:17.716Z,61.32
2022-09-25T04:53:45.246Z,61.23
2022-09-25T04:56:16.083Z,61.37
2022-09-25T04:58:45.672Z,61.36
2022-09-25T05:01:14.617Z,61.15
2022-09-25T05:03:42.700Z,61.14
2022-09-25T05:06:10.461Z,61.37
2022-09-25T05:08:38.040Z,61.38
2022-09-25T05:11:05.616Z,61.45
2022-09-25T05:13:33.453Z,61.22
2022-09-25T05:16:01.120Z,61.21
2022-09-25T05:18:30.086Z,61.44
2022-09-25T05:20:57.921Z,61.36
2022-09-25T05:23:25.594Z,61.46
2022-09-25T05:25:53.866Z,61.23
2022-09-25T05:28:24.638Z,61.46
2022-09-25T05:30:52.225Z,61.45
2022-09-25T05:33:19.953Z,61.59
2022-09-25T05:35:49.458Z,61.41
2022-09-25T05:38:16.973Z,61.39
2022-09-25T05:40:44.591Z,61.53
2022-09-25T05:43:12.773Z,61.64
2022-09-25T05:45:40.418Z,61.48
2022-09-25T05:48:08.792Z,61.55
2022-09-25T05:50:36.384Z,61.63
2022-09-25T05:53:05.953Z,61.46
2022-09-25T05:55:33.536Z,61.49
2022-09-25T05:58:01.914Z,61.72
2022-09-25T06:00:29.953Z,61.42
2022-09-25T06:02:57.624Z,61.42
2022-09-25T06:05:25.375Z,61.43
2022-09-25T06:07:53.930Z,61.37
2022-09-25T06:10:22.813Z,61.42
2022-09-25T06:12:50.711Z,61.31
2022-09-25T06:15:19.003Z,61.31
2022-09-25T06:17:46.553Z,61.20
2022-09-25T06:20:16.279Z,61.34
2022-09-25T06:22:44.613Z,61.19
2022-09-25T06:25:12.172Z,61.07
2022-09-25T06:27:41.054Z,61.33
2022-09-25T06:30:09.248Z,61.27
2022-09-25T06:32:38.069Z,60.99
2022-09-25T06:35:06.496Z,60.97
2022-09-25T06:37:34.083Z,60.95
2022-09-25T06:40:02.671Z,60.70
2022-09-25T06:42:30.296Z,61.03
2022-09-25T06:44:59.183Z,60.99
2022-09-25T06:47:27.060Z,60.88
2022-09-25T06:49:54.709Z,60.83
2022-09-25T06:52:22.305Z,60.91
2022-09-25T06:54:49.898Z,60.79
2022-09-25T06:57:17.485Z,60.73
2022-09-25T06:59:45.036Z,60.67
2022-09-25T07:02:31.426Z,60.61
2022-09-25T07:05:00.351Z,60.66
2022-09-25T07:07:27.914Z,60.64
2022-09-25T07:09:55.481Z,60.64
2022-09-25T07:12:23.079Z,60.71
2022-09-25T07:14:50.646Z,60.46
2022-09-25T07:17:19.688Z,60.65
2022-09-25T07:19:47.269Z,60.71
2022-09-25T07:22:14.947Z,60.64
2022-09-25T07:24:42.553Z,60.94
2022-09-25T07:27:10.195Z,60.75
2022-09-25T07:29:37.855Z,60.76
2022-09-25T07:32:05.579Z,60.45
2022-09-25T07:34:37.527Z,60.55
2022-09-25T07:37:05.049Z,60.58
2022-09-25T07:39:32.596Z,60.71
2022-09-25T07:42:00.157Z,60.71
2022-09-25T07:44:29.490Z,60.67
2022-09-25T07:47:00.794Z,60.58
2022-09-25T07:49:28.886Z,60.78
2022-09-25T07:51:57.762Z,60.78
2022-09-25T07:54:25.796Z,60.66
2022-09-25T07:56:54.314Z,60.61
2022-09-25T07:59:21.884Z,60.89
2022-09-25T08:01:53.719Z,60.96
2022-09-25T08:04:22.133Z,60.69
2022-09-25T08:06:49.678Z,60.76
2022-09-25T08:09:18.588Z,60.78
2022-09-25T08:11:46.153Z,60.65
2022-09-25T08:14:15.718Z,61.00
2022-09-25T08:16:43.822Z,61.02
2022-09-25T08:19:11.450Z,60.79
2022-09-25T08:21:39.005Z,60.55
2022-09-25T08:24:06.708Z,60.56
2022-09-25T08:26:36.632Z,60.44
2022-09-25T08:29:04.865Z,60.33
2022-09-25T08:31:32.733Z,60.48
2022-09-25T08:34:21.190Z,60.44
2022-09-25T08:36:49.189Z,60.40
2022-09-25T08:39:16.792Z,60.32
2022-09-25T08:41:48.724Z,60.33
2022-09-25T08:44:22.450Z,60.44
2022-09-25T08:47:09.559Z,60.70
2022-09-25T08:50:01.661Z,61.24
2022-09-25T08:52:32.004Z,61.26
2022-09-25T08:54:59.625Z,61.81
2022-09-25T08:57:31.606Z,62.33
2022-09-25T09:00:02.460Z,62.16
2022-09-25T09:02:38.495Z,62.52
2022-09-25T09:05:08.158Z,62.80
2022-09-25T09:07:37.089Z,63.24
2022-09-25T09:10:08.245Z,63.92
2022-09-25T09:12:44.900Z,63.71
2022-09-25T09:15:19.196Z,64.30
2022-09-25T09:17:46.787Z,64.64
2022-09-25T09:20:17.803Z,65.04
2022-09-25T09:22:48.630Z,64.75
2022-09-25T09:25:29.185Z,65.11
2022-09-25T09:28:23.795Z,65.30
2022-09-25T09:30:56.918Z,65.37
2022-09-25T09:33:32.169Z,65.22
2022-09-25T09:36:05.807Z,65.22
2022-09-25T09:38:39.364Z,64.68
2022-09-25T09:41:15.945Z,64.41
2022-09-25T09:43:54.930Z,64.27
2022-09-25T09:46:28.777Z,64.10
2022-09-25T09:49:03.441Z,64.14
2022-09-25T09:51:33.303Z,64.05
2022-09-25T09:54:02.577Z,64.04
2022-09-25T09:56:31.604Z,63.76
2022-09-25T09:59:01.610Z,63.97
2022-09-25T10:01:41.996Z,62.61
2022-09-25T10:04:11.533Z,62.15
2022-09-25T10:06:39.952Z,61.97
2022-09-25T10:09:08.735Z,61.93
2022-09-25T10:11:37.452Z,62.60
2022-09-25T10:14:06.442Z,61.88
2022-09-25T10:16:34.030Z,61.94
2022-09-25T10:19:04.961Z,61.92
2022-09-25T10:21:34.194Z,61.36
2022-09-25T10:24:03.257Z,61.52
2022-09-25T10:26:31.935Z,62.73
2022-09-25T10:29:00.072Z,62.53
2022-09-25T10:31:31.473Z,62.99
2022-09-25T10:34:01.107Z,62.77
2022-09-25T10:36:37.050Z,62.60
2022-09-25T10:39:31.411Z,62.60
2022-09-25T10:41:52.819Z,61.84
2022-09-25T10:44:22.644Z,63.74
2022-09-25T10:47:09.254Z,63.43
2022-09-25T10:50:04.893Z,62.67
2022-09-25T10:52:47.499Z,61.95
2022-09-25T10:55:17.365Z,61.92
2022-09-25T10:57:46.262Z,61.98
2022-09-25T11:00:21.579Z,61.70
2022-09-25T11:02:53.232Z,61.17
2022-09-25T11:05:27.777Z,60.33
2022-09-25T11:07:56.119Z,59.70
2022-09-25T11:10:24.481Z,59.37
2022-09-25T11:12:52.109Z,59.06
2022-09-25T11:15:20.848Z,58.45
2022-09-25T11:17:51.350Z,58.08
2022-09-25T11:20:29.807Z,58.21
2022-09-25T11:23:07.417Z,57.66
2022-09-25T11:25:37.834Z,57.39
2022-09-25T11:28:09.751Z,57.26
2022-09-25T11:30:40.941Z,57.46
2022-09-25T11:33:13.106Z,57.42
2022-09-25T11:35:45.242Z,57.10
2022-09-25T11:38:18.016Z,56.77
2022-09-25T11:41:10.882Z,57.06
2022-09-25T11:43:58.471Z,56.75
2022-09-25T11:46:31.885Z,56.47
2022-09-25T11:49:12.373Z,56.62
2022-09-25T11:51:53.201Z,55.99
2022-09-25T11:54:33.922Z,56.08
2022-09-25T11:57:05.500Z,55.92
2022-09-25T11:59:41.093Z,55.80
2022-09-25T12:02:17.236Z,55.63
2022-09-25T12:04:58.424Z,55.66
2022-09-25T12:07:39.823Z,55.54
2022-09-25T12:10:15.893Z,55.39
2022-09-25T12:12:49.934Z,55.36
2022-09-25T12:15:21.249Z,55.51
2022-09-25T12:17:53.418Z,55.07
2022-09-25T12:20:26.009Z,55.01
2022-09-25T12:23:01.699Z,55.36
2022-09-25T12:25:37.514Z,54.85
2022-09-25T12:28:08.659Z,54.63
2022-09-25T12:30:39.354Z,54.63
2022-09-25T12:33:14.353Z,54.50
2022-09-25T12:35:48.296Z,54.31
2022-09-25T12:38:22.513Z,54.57
2022-09-25T12:40:52.207Z,54.60
2022-09-25T12:43:24.079Z,54.42
2022-09-25T12:45:53.712Z,54.22
2022-09-25T12:48:23.797Z,54.16
2022-09-25T12:50:56.374Z,54.13
2022-09-25T12:53:28.501Z,54.01
2022-09-25T12:55:59.670Z,54.18
2022-09-25T12:58:38.634Z,54.20
2022-09-25T13:01:07.879Z,54.04
2022-09-25T13:03:43.392Z,53.93
2022-09-25T13:06:15.484Z,54.16
2022-09-25T13:08:48.648Z,54.08
2022-09-25T13:11:19.568Z,54.09
2022-09-25T13:13:48.993Z,54.27
2022-09-25T13:16:16.861Z,53.98
2022-09-25T13:18:48.462Z,54.11
2022-09-25T13:21:27.466Z,54.49
2022-09-25T13:23:55.201Z,54.25
2022-09-25T13:26:26.668Z,55.00
2022-09-25T13:28:57.417Z,54.53
2022-09-25T13:31:27.099Z,54.45
2022-09-25T13:33:56.770Z,54.89
2022-09-25T13:36:37.949Z,55.10
2022-09-25T13:39:24.245Z,54.54
2022-09-25T13:41:55.153Z,55.59
2022-09-25T13:45:08.015Z,55.19
2022-09-25T13:48:07.150Z,54.99
2022-09-25T13:50:39.873Z,55.05
2022-09-25T13:53:24.788Z,55.04
2022-09-25T13:56:14.980Z,55.06
2022-09-25T13:59:28.182Z,55.55
2022-09-25T14:02:00.982Z,55.62
2022-09-25T14:04:38.115Z,55.12
2022-09-25T14:07:11.885Z,56.13
2022-09-25T14:09:43.829Z,55.95
2022-09-25T14:12:19.277Z,55.36
2022-09-25T14:14:52.617Z,55.40
2022-09-25T14:17:20.997Z,57.90
2022-09-25T14:19:52.782Z,58.52
2022-09-25T14:22:24.961Z,57.73
2022-09-25T14:24:54.119Z,58.91
2022-09-25T14:27:42.086Z,58.92
2022-09-25T14:30:13.794Z,58.77
2022-09-25T14:32:55.556Z,58.61
2022-09-25T14:35:34.290Z,58.75
2022-09-25T14:38:11.384Z,58.05
2022-09-25T14:40:41.867Z,56.86
2022-09-25T14:43:20.811Z,57.28
2022-09-25T14:45:58.403Z,56.76
2022-09-25T14:48:27.358Z,55.99
2022-09-25T14:50:56.487Z,55.79
2022-09-25T14:53:27.590Z,55.75
2022-09-25T14:55:56.457Z,55.33
2022-09-25T14:58:27.699Z,55.68
2022-09-25T15:00:56.650Z,55.17
2022-09-25T15:03:27.272Z,55.10
2022-09-25T15:05:55.262Z,55.53
2022-09-25T15:08:24.353Z,55.18
2022-09-25T15:11:02.889Z,55.28
2022-09-25T15:13:33.501Z,55.18
2022-09-25T15:16:18.628Z,55.22
2022-09-25T15:18:51.200Z,55.60
2022-09-25T15:21:26.230Z,56.02
2022-09-25T15:23:54.338Z,55.81
2022-09-25T15:26:23.301Z,57.33
2022-09-25T15:28:51.712Z,57.73
2022-09-25T15:31:20.274Z,58.19
2022-09-25T15:34:02.464Z,58.43
2022-09-25T15:36:30.109Z,58.57
2022-09-25T15:39:00.058Z,58.16
2022-09-25T15:41:29.639Z,57.00
2022-09-25T15:44:12.535Z,57.74
2022-09-25T15:46:40.989Z,56.95
2022-09-25T15:49:08.691Z,57.27
2022-09-25T15:51:39.914Z,57.23
2022-09-25T15:54:24.214Z,57.43
2022-09-25T15:56:55.193Z,57.19
2022-09-25T15:59:26.038Z,57.40
2022-09-25T16:02:19.676Z,58.22
2022-09-25T16:04:50.030Z,57.28
2022-09-25T16:07:25.338Z,56.94
2022-09-25T16:09:55.026Z,57.78
2022-09-25T16:12:28.817Z,57.88
2022-09-25T16:14:57.658Z,57.67
2022-09-25T16:17:32.933Z,57.41
2022-09-25T16:20:02.909Z,58.00
2022-09-25T16:22:41.129Z,56.69
2022-09-25T16:25:22.419Z,57.13
2022-09-25T16:27:51.734Z,57.18
2022-09-25T16:30:22.272Z,56.55
2022-09-25T16:32:52.118Z,56.78
2022-09-25T16:35:26.025Z,56.75
2022-09-25T16:37:56.379Z,57.90
2022-09-25T16:40:29.017Z,55.47
2022-09-25T16:42:58.425Z,55.94
2022-09-25T16:45:29.651Z,57.03
2022-09-25T16:47:58.841Z,57.32
2022-09-25T16:50:32.057Z,56.93
2022-09-25T16:53:00.756Z,57.16
2022-09-25T16:55:34.126Z,57.65
2022-09-25T16:58:04.148Z,56.08
2022-09-25T17:00:32.394Z,57.53
2022-09-25T17:03:01.793Z,55.92
2022-09-25T17:05:30.817Z,55.71
2022-09-25T17:08:00.220Z,56.69
2022-09-25T17:10:29.176Z,55.60
2022-09-25T17:12:57.325Z,55.85
2022-09-25T17:15:30.175Z,56.06
2022-09-25T17:17:58.292Z,55.91
2022-09-25T17:20:26.742Z,56.53
2022-09-25T17:22:55.485Z,56.15
2022-09-25T17:25:36.567Z,57.29
2022-09-25T17:28:04.848Z,56.53
2022-09-25T17:30:33.804Z,56.30
2022-09-25T17:33:05.058Z,56.95
2022-09-25T17:35:39.143Z,56.40
2022-09-25T17:38:06.906Z,56.54
2022-09-25T17:40:34.561Z,56.30
2022-09-25T17:43:02.317Z,56.96
2022-09-25T17:45:37.025Z,56.87
2022-09-25T17:48:04.799Z,56.95
2022-09-25T17:50:35.778Z,56.92
2022-09-25T17:53:04.999Z,57.14
2022-09-25T17:55:32.671Z,56.20
2022-09-25T17:58:00.237Z,56.37
2022-09-25T18:00:27.916Z,57.17
2022-09-25T18:02:57.092Z,57.29
2022-09-25T18:05:25.835Z,57.96
2022-09-25T18:07:53.458Z,57.73
2022-09-25T18:10:21.062Z,57.44
2022-09-25T18:12:48.802Z,56.60
2022-09-25T18:15:16.722Z,57.56
2022-09-25T18:17:44.338Z,56.91
2022-09-25T18:20:31.292Z,58.01
2022-09-25T18:23:01.891Z,55.96
2022-09-25T18:25:49.850Z,55.94
2022-09-25T18:28:17.577Z,56.06
2022-09-25T18:30:45.271Z,55.98
2022-09-25T18:33:12.963Z,56.42
2022-09-25T18:35:42.803Z,57.09
2022-09-25T18:38:10.433Z,56.78
2022-09-25T18:40:38.052Z,57.93
2022-09-25T18:43:05.661Z,56.64
2022-09-25T18:45:33.713Z,58.46
2022-09-25T18:48:01.551Z,57.07
2022-09-25T18:50:29.326Z,57.18
2022-09-25T18:52:58.617Z,57.60
2022-09-25T18:55:26.234Z,58.37
2022-09-25T18:57:53.797Z,58.07
2022-09-25T19:00:22.041Z,58.55
2022-09-25T19:02:49.709Z,57.81
2022-09-25T19:05:17.392Z,57.53
2022-09-25T19:07:45.064Z,58.42
2022-09-25T19:10:14.053Z,59.78
2022-09-25T19:12:41.675Z,58.21
2022-09-25T19:15:10.471Z,58.59
2022-09-25T19:17:38.050Z,58.52
2022-09-25T19:20:06.440Z,58.32
2022-09-25T19:22:34.037Z,58.32
2022-09-25T19:25:03.858Z,58.68
2022-09-25T19:27:33.151Z,59.05
2022-09-25T19:30:00.731Z,58.75
2022-09-25T19:32:28.350Z,58.80
2022-09-25T19:34:56.056Z,58.90
2022-09-25T19:37:27.510Z,59.07
2022-09-25T19:40:12.523Z,59.26
2022-09-25T19:42:41.470Z,58.85
2022-09-25T19:45:10.152Z,59.15
2022-09-25T19:47:37.702Z,59.28
2022-09-25T19:50:08.622Z,59.36
2022-09-25T19:52:36.214Z,59.81
2022-09-25T19:55:03.781Z,59.32
2022-09-25T19:57:31.342Z,59.20
2022-09-25T20:00:00.389Z,59.03
2022-09-25T20:02:28.009Z,58.67
2022-09-25T20:04:55.749Z,58.11
2022-09-25T20:07:23.387Z,58.33
2022-09-25T20:09:50.950Z,58.34
2022-09-25T20:12:18.541Z,58.65
2022-09-25T20:14:46.049Z,58.42
2022-09-25T20:17:14.928Z,57.99
2022-09-25T20:19:42.673Z,58.11
2022-09-25T20:22:10.294Z,57.96
2022-09-25T20:24:37.847Z,57.78
2022-09-25T20:27:05.412Z,57.97
2022-09-25T20:29:33.071Z,57.89
2022-09-25T20:32:00.777Z,57.69
2022-09-25T20:34:29.937Z,58.08
2022-09-25T20:36:57.477Z,57.58
2022-09-25T20:39:27.282Z,57.79
2022-09-25T20:41:54.886Z,57.78
2022-09-25T20:44:22.487Z,57.55
2022-09-25T20:46:50.109Z,57.79
2022-09-25T20:49:20.014Z,57.57
2022-09-25T20:51:48.993Z,57.53
2022-09-25T20:54:16.612Z,57.72
2022-09-25T20:56:45.311Z,57.59
2022-09-25T20:59:15.297Z,57.50
2022-09-25T21:01:42.937Z,57.47
2022-09-25T21:04:11.258Z,57.61
2022-09-25T21:06:39.940Z,57.41
2022-09-25T21:09:11.017Z,57.51
2022-09-25T21:11:40.265Z,57.81
2022-09-25T21:14:07.914Z,57.61
2022-09-25T21:16:35.610Z,57.65
2022-09-25T21:19:04.726Z,57.71
2022-09-25T21:21:33.174Z,57.68
2022-09-25T21:24:01.235Z,57.47
2022-09-25T21:26:30.543Z,57.74
2022-09-25T21:28:59.168Z,57.68
2022-09-25T21:31:27.771Z,57.89
2022-09-25T21:33:56.085Z,57.66
2022-09-25T21:36:23.804Z,57.64
2022-09-25T21:38:51.510Z,57.69
2022-09-25T21:41:19.942Z,57.63
2022-09-25T21:43:48.971Z,57.64
2022-09-25T21:46:18.169Z,57.79
2022-09-25T21:48:48.401Z,57.70
2022-09-25T21:51:16.169Z,57.66
2022-09-25T21:53:43.795Z,57.72
2022-09-25T21:56:12.280Z,57.71
2022-09-25T21:58:39.949Z,57.65
2022-09-25T22:01:09.837Z,57.71
2022-09-25T22:03:38.676Z,57.80
2022-09-25T22:06:07.497Z,57.79
2022-09-25T22:08:35.225Z,57.87
2022-09-25T22:11:02.774Z,57.84
2022-09-25T22:13:31.405Z,57.73
2022-09-25T22:16:02.137Z,57.71
2022-09-25T22:18:31.012Z,57.99
2022-09-25T22:20:58.584Z,57.76
2022-09-25T22:23:26.278Z,58.07
2022-09-25T22:25:53.860Z,57.85
2022-09-25T22:28:21.543Z,57.84
2022-09-25T22:30:50.272Z,58.01
2022-09-25T22:33:17.886Z,57.76
2022-09-25T22:35:46.837Z,58.04
2022-09-25T22:38:14.384Z,58.21
2022-09-25T22:40:42.011Z,57.97
2022-09-25T22:43:09.580Z,58.10
2022-09-25T22:45:37.206Z,57.93
2022-09-25T22:48:05.110Z,58.05
2022-09-25T22:50:32.640Z,58.04
2022-09-25T22:53:01.498Z,58.04
2022-09-25T22:55:29.085Z,58.07
2022-09-25T22:57:56.647Z,57.89
2022-09-25T23:00:24.221Z,58.00
2022-09-25T23:02:51.809Z,57.92
2022-09-25T23:05:19.465Z,58.28
2022-09-25T23:07:47.143Z,57.95
2022-09-25T23:10:16.178Z,58.08
2022-09-25T23:12:43.915Z,57.96
2022-09-25T23:15:12.017Z,58.08
2022-09-25T23:17:39.557Z,58.12
2022-09-25T23:20:08.502Z,57.85
2022-09-25T23:22:36.082Z,58.12
2022-09-25T23:25:03.605Z,57.89
2022-09-25T23:27:32.476Z,58.11
2022-09-25T23:30:00.038Z,57.96
2022-09-25T23:32:27.558Z,58.02
2022-09-25T23:34:55.093Z,58.27
2022-09-25T23:37:22.605Z,58.09
2022-09-25T23:39:50.154Z,58.01
2022-09-25T23:42:17.685Z,57.94
2022-09-25T23:44:46.568Z,58.00
2022-09-25T23:47:14.094Z,58.14
2022-09-25T23:49:41.633Z,58.08
2022-09-25T23:52:09.226Z,58.11
2022-09-25T23:54:36.761Z,57.99
2022-09-25T23:57:04.545Z,57.96
2022-09-25T23:59:32.048Z,58.15
